createdAt,value
2023-05-12T00:04:52.140Z,80.32
2023-05-12T00:09:53.576Z,80.30
2023-05-12T00:14:55.191Z,80.16
2023-05-12T00:19:56.505Z,80.33
2023-05-12T00:24:57.915Z,80.21
2023-05-12T00:29:59.347Z,80.44
2023-05-12T00:35:00.688Z,80.42
2023-05-12T00:40:02.047Z,80.31
2023-05-12T00:45:04.655Z,80.08
2023-05-12T00:50:06.827Z,80.27
2023-05-12T00:55:08.745Z,80.20
2023-05-12T01:00:11.799Z,80.15
2023-05-12T01:05:13.267Z,79.75
2023-05-12T01:10:19.580Z,80.01
2023-05-12T01:15:21.212Z,79.88
2023-05-12T01:20:26.342Z,80.29
2023-05-12T01:25:32.064Z,80.36
2023-05-12T01:30:34.349Z,80.21
2023-05-12T01:35:35.869Z,80.25
2023-05-12T01:40:37.375Z,80.39
2023-05-12T01:45:38.940Z,81.37
2023-05-12T01:50:42.285Z,81.69
2023-05-12T01:55:43.632Z,81.60
2023-05-12T02:00:44.975Z,81.50
2023-05-12T02:05:46.306Z,81.12
2023-05-12T02:10:47.630Z,81.07
2023-05-12T02:15:49.344Z,81.18
2023-05-12T02:20:50.743Z,81.04
2023-05-12T02:25:52.116Z,81.82
2023-05-12T02:30:54.244Z,81.72
2023-05-12T02:35:56.042Z,81.70
2023-05-12T02:40:57.415Z,81.64
2023-05-12T02:45:58.955Z,81.39
2023-05-12T02:51:00.314Z,81.32
2023-05-12T02:56:01.787Z,81.20
2023-05-12T03:01:10.872Z,80.96
2023-05-12T03:06:12.728Z,80.88
2023-05-12T03:11:14.078Z,80.54
2023-05-12T03:16:18.937Z,80.67
2023-05-12T03:21:21.025Z,80.51
2023-05-12T03:26:22.520Z,79.84
2023-05-12T03:31:24.037Z,80.15
2023-05-12T03:36:25.502Z,80.08
2023-05-12T03:41:26.820Z,80.05
2023-05-12T03:46:28.299Z,79.75
2023-05-12T03:51:30.525Z,79.86
2023-05-12T03:56:31.927Z,79.75
2023-05-12T04:01:33.359Z,79.83
2023-05-12T04:06:36.547Z,80.06
2023-05-12T04:11:37.994Z,79.88
2023-05-12T04:16:40.658Z,80.22
2023-05-12T04:21:42.132Z,80.32
2023-05-12T04:26:43.463Z,80.21
2023-05-12T04:31:44.837Z,80.36
2023-05-12T04:36:46.223Z,80.20
2023-05-12T04:41:47.619Z,80.26
2023-05-12T04:46:50.590Z,80.38
2023-05-12T04:51:51.919Z,80.19
2023-05-12T04:56:53.259Z,80.31
2023-05-12T05:01:54.788Z,80.08
2023-05-12T05:06:56.277Z,80.08
2023-05-12T05:11:57.618Z,80.03
2023-05-12T05:16:59.969Z,80.18
2023-05-12T05:22:01.300Z,80.11
2023-05-12T05:27:02.674Z,79.95
2023-05-12T05:32:04.438Z,79.79
2023-05-12T05:37:05.946Z,79.68
2023-05-12T05:42:07.317Z,79.66
2023-05-12T05:47:08.775Z,79.53
2023-05-12T05:52:10.310Z,79.67
2023-05-12T05:57:11.689Z,79.33
2023-05-12T06:02:13.208Z,79.36
2023-05-12T06:07:14.719Z,79.27
2023-05-12T06:12:16.058Z,79.04
2023-05-12T06:17:17.659Z,79.17
2023-05-12T06:22:19.287Z,78.79
2023-05-12T06:27:20.629Z,78.86
2023-05-12T06:32:22.030Z,78.80
2023-05-12T06:37:23.483Z,78.86
2023-05-12T06:42:24.862Z,78.86
2023-05-12T06:47:26.305Z,78.60
2023-05-12T06:52:27.732Z,78.42
2023-05-12T06:57:29.092Z,78.52
2023-05-12T07:02:30.779Z,78.20
2023-05-12T07:07:32.415Z,77.64
2023-05-12T07:12:33.792Z,77.67
2023-05-12T07:17:35.298Z,77.25
2023-05-12T07:22:38.861Z,76.96
2023-05-12T07:27:40.463Z,77.07
2023-05-12T07:32:42.897Z,76.94
2023-05-12T07:37:44.327Z,76.83
2023-05-12T07:42:45.768Z,76.50
2023-05-12T07:47:47.095Z,76.40
2023-05-12T07:52:53.184Z,76.15
2023-05-12T07:57:54.588Z,76.05
2023-05-12T08:02:56.584Z,75.97
2023-05-12T08:07:58.242Z,75.81
2023-05-12T08:12:59.673Z,75.83
2023-05-12T08:18:01.250Z,75.43
2023-05-12T08:23:02.972Z,75.33
2023-05-12T08:28:04.609Z,75.44
2023-05-12T08:33:06.211Z,74.93
2023-05-12T08:38:07.823Z,74.56
2023-05-12T08:43:32.286Z,73.89
2023-05-12T08:48:35.146Z,73.97
2023-05-12T08:53:38.040Z,73.49
2023-05-12T08:58:42.225Z,73.49
2023-05-12T09:03:44.255Z,73.26
2023-05-12T09:08:45.750Z,73.16
2023-05-12T09:14:06.321Z,72.63
2023-05-12T09:19:07.870Z,72.35
2023-05-12T09:24:09.396Z,71.65
2023-05-12T09:29:15.761Z,71.59
2023-05-12T09:34:30.350Z,71.02
2023-05-12T09:39:32.002Z,70.56
2023-05-12T09:44:33.432Z,70.35
2023-05-12T09:49:34.777Z,69.67
2023-05-12T09:54:39.545Z,69.15
2023-05-12T09:59:43.907Z,68.45
2023-05-12T10:04:50.342Z,68.09
2023-05-12T10:09:55.066Z,67.58
2023-05-12T10:14:56.790Z,68.17
2023-05-12T10:19:58.255Z,68.00
2023-05-12T10:25:01.365Z,68.16
2023-05-12T10:30:04.843Z,68.55
2023-05-12T10:35:11.241Z,68.64
2023-05-12T10:40:23.182Z,69.50
2023-05-12T10:45:24.551Z,70.32
2023-05-12T10:50:27.830Z,70.93
2023-05-12T10:55:42.209Z,70.72
2023-05-12T11:00:46.821Z,70.98
2023-05-12T11:05:59.185Z,70.70
2023-05-12T11:11:02.890Z,71.62
2023-05-12T11:16:04.998Z,71.79
2023-05-12T11:21:12.846Z,71.31
2023-05-12T11:26:18.464Z,71.34
2023-05-12T11:31:21.263Z,71.05
2023-05-12T11:36:22.651Z,70.41
2023-05-12T11:41:26.187Z,70.39
2023-05-12T11:46:30.813Z,68.75
2023-05-12T11:51:32.210Z,69.08
2023-05-12T11:56:33.680Z,68.47
2023-05-12T12:01:44.563Z,67.91
2023-05-12T12:06:46.067Z,68.16
2023-05-12T12:11:47.406Z,66.84
2023-05-12T12:16:48.739Z,66.82
2023-05-12T12:21:50.153Z,65.51
2023-05-12T12:26:51.903Z,65.27
2023-05-12T12:31:53.248Z,63.78
2023-05-12T12:36:54.623Z,63.68
2023-05-12T12:41:55.984Z,63.31
2023-05-12T12:46:57.403Z,62.37
2023-05-12T12:51:58.790Z,62.07
2023-05-12T12:57:00.190Z,61.27
2023-05-12T13:02:02.514Z,61.94
2023-05-12T13:07:04.133Z,61.09
2023-05-12T13:12:05.990Z,60.97
2023-05-12T13:17:07.994Z,60.62
2023-05-12T13:22:10.133Z,60.91
2023-05-12T13:27:11.530Z,60.81
2023-05-12T13:32:13.933Z,60.96
2023-05-12T13:37:15.711Z,60.34
2023-05-12T13:42:17.325Z,60.63
2023-05-12T13:47:19.130Z,60.44
2023-05-12T13:52:20.894Z,60.15
2023-05-12T13:57:22.314Z,60.42
2023-05-12T14:02:23.985Z,60.26
2023-05-12T14:07:25.494Z,60.28
2023-05-12T14:12:27.207Z,59.23
2023-05-12T14:17:28.592Z,60.04
2023-05-12T14:22:29.951Z,59.20
2023-05-12T14:27:31.299Z,58.70
2023-05-12T14:32:34.154Z,58.23
2023-05-12T14:37:35.736Z,58.06
2023-05-12T14:42:37.890Z,58.10
2023-05-12T14:47:39.435Z,57.78
2023-05-12T14:52:40.806Z,57.37
2023-05-12T14:57:42.659Z,56.91
2023-05-12T15:02:45.344Z,56.80
2023-05-12T15:07:46.768Z,55.88
2023-05-12T15:12:48.137Z,56.03
2023-05-12T15:17:49.559Z,55.53
2023-05-12T15:22:52.182Z,56.29
2023-05-12T15:27:53.506Z,55.33
2023-05-12T15:32:55.020Z,55.67
2023-05-12T15:37:56.389Z,55.78
2023-05-12T15:42:57.883Z,56.07
2023-05-12T15:47:59.295Z,56.46
2023-05-12T15:53:01.013Z,56.60
2023-05-12T15:58:04.026Z,57.67
2023-05-12T16:03:05.683Z,58.35
2023-05-12T16:08:07.162Z,58.53
2023-05-12T16:13:08.831Z,59.26
2023-05-12T16:18:11.391Z,59.58
2023-05-12T16:23:13.202Z,59.78
2023-05-12T16:28:14.624Z,60.12
2023-05-12T16:33:16.008Z,59.98
2023-05-12T16:38:17.340Z,59.61
2023-05-12T16:43:18.765Z,59.98
2023-05-12T16:48:20.216Z,60.11
2023-05-12T16:53:21.885Z,59.94
2023-05-12T16:58:23.715Z,60.14
2023-05-12T17:03:25.946Z,60.58
2023-05-12T17:08:27.454Z,60.46
2023-05-12T17:13:28.915Z,60.84
2023-05-12T17:18:30.945Z,61.21
2023-05-12T17:23:32.369Z,61.41
2023-05-12T17:28:33.744Z,61.47
2023-05-12T17:33:35.176Z,61.49
2023-05-12T17:38:37.202Z,61.11
2023-05-12T17:43:38.584Z,60.77
2023-05-12T17:48:40.277Z,61.08
2023-05-12T17:53:41.734Z,60.97
2023-05-12T17:58:43.083Z,61.20
2023-05-12T18:03:44.495Z,61.21
2023-05-12T18:08:46.509Z,61.21
2023-05-12T18:13:48.197Z,61.68
2023-05-12T18:18:49.645Z,61.69
2023-05-12T18:23:51.253Z,61.98
2023-05-12T18:28:52.828Z,61.93
2023-05-12T18:33:54.367Z,62.01
2023-05-12T18:38:55.790Z,62.52
2023-05-12T18:43:57.177Z,62.65
2023-05-12T18:48:58.554Z,63.07
2023-05-12T18:53:59.948Z,63.15
2023-05-12T18:59:01.356Z,63.36
2023-05-12T19:04:03.620Z,63.78
2023-05-12T19:09:05.085Z,63.74
2023-05-12T19:14:06.942Z,63.63
2023-05-12T19:19:08.386Z,63.98
2023-05-12T19:24:10.543Z,64.00
2023-05-12T19:29:12.003Z,64.60
2023-05-12T19:34:13.376Z,64.87
2023-05-12T19:39:14.825Z,65.06
2023-05-12T19:44:16.174Z,66.07
2023-05-12T19:49:17.637Z,66.24
2023-05-12T19:54:19.115Z,66.52
2023-05-12T19:59:20.573Z,67.18
2023-05-12T20:04:23.038Z,67.35
2023-05-12T20:09:27.045Z,67.66
2023-05-12T20:14:28.467Z,67.34
2023-05-12T20:19:29.803Z,67.41
2023-05-12T20:24:31.192Z,67.42
2023-05-12T20:29:32.580Z,67.21
2023-05-12T20:34:33.952Z,67.20
2023-05-12T20:39:35.252Z,67.53
2023-05-12T20:44:36.772Z,67.37
2023-05-12T20:49:38.450Z,67.39
2023-05-12T20:54:39.807Z,67.52
2023-05-12T20:59:41.159Z,67.63
2023-05-12T21:04:42.503Z,67.55
2023-05-12T21:09:43.954Z,67.95
2023-05-12T21:14:45.392Z,68.44
2023-05-12T21:19:46.815Z,68.27
2023-05-12T21:29:50.013Z,68.41
2023-05-12T21:34:51.465Z,68.56
2023-05-12T21:39:52.913Z,68.94
2023-05-12T21:44:54.344Z,68.95
2023-05-12T21:49:56.749Z,69.24
2023-05-12T21:54:58.124Z,69.40
2023-05-12T22:00:03.826Z,69.42
2023-05-12T22:05:05.718Z,69.63
2023-05-12T22:10:07.535Z,69.88
2023-05-12T22:15:09.196Z,70.60
2023-05-12T22:20:11.141Z,70.43
2023-05-12T22:25:12.483Z,70.18
2023-05-12T22:30:14.135Z,70.10
2023-05-12T22:35:16.234Z,70.04
2023-05-12T22:40:17.647Z,70.04
2023-05-12T22:45:19.126Z,70.22
2023-05-12T22:50:20.852Z,70.31
2023-05-12T22:55:30.235Z,70.47
2023-05-12T23:00:31.619Z,70.71
2023-05-12T23:05:33.159Z,70.56
2023-05-12T23:10:34.874Z,70.35
2023-05-12T23:15:36.281Z,70.53
2023-05-12T23:20:37.689Z,70.45
2023-05-12T23:25:39.011Z,70.75
2023-05-12T23:30:40.398Z,71.24
2023-05-12T23:35:42.024Z,71.27
2023-05-12T23:40:43.383Z,71.56
2023-05-12T23:45:45.166Z,71.67
2023-05-12T23:50:46.589Z,71.51
2023-05-12T23:55:47.946Z,71.23
